createdAt,value
2022-10-05T00:00:05.420Z,10.43
2022-10-05T00:03:13.469Z,10.42
2022-10-05T00:06:18.782Z,10.44
2022-10-05T00:09:23.755Z,10.46
2022-10-05T00:12:30.153Z,10.43
2022-10-05T00:15:38.610Z,10.45
2022-10-05T00:18:43.653Z,10.46
2022-10-05T00:21:49.023Z,10.47
2022-10-05T00:25:01.954Z,10.44
2022-10-05T00:28:12.594Z,10.40
2022-10-05T00:31:23.184Z,10.36
2022-10-05T00:34:28.155Z,10.30
2022-10-05T00:37:33.189Z,10.27
2022-10-05T00:40:57.519Z,10.25
2022-10-05T00:44:30.291Z,10.21
2022-10-05T00:47:51.793Z,10.19
2022-10-05T00:51:18.623Z,10.19
2022-10-05T00:54:31.868Z,10.16
2022-10-05T00:57:53.328Z,10.15
2022-10-05T01:01:08.778Z,10.13
2022-10-05T01:04:22.799Z,10.06
2022-10-05T01:07:39.266Z,10.02
2022-10-05T01:10:50.458Z,9.97
2022-10-05T01:14:06.057Z,9.99
2022-10-05T01:17:20.582Z,9.94
2022-10-05T01:20:38.074Z,9.93
2022-10-05T01:24:11.923Z,9.92
2022-10-05T01:27:23.591Z,9.94
2022-10-05T01:30:40.083Z,9.93
2022-10-05T01:33:54.509Z,9.93
2022-10-05T01:37:04.450Z,9.91
2022-10-05T01:40:14.635Z,9.88
2022-10-05T01:43:29.870Z,9.83
2022-10-05T01:46:40.575Z,9.83
2022-10-05T01:49:51.833Z,9.81
2022-10-05T01:53:07.780Z,9.80
2022-10-05T01:56:21.463Z,9.73
2022-10-05T01:59:39.047Z,9.65
2022-10-05T02:02:50.339Z,9.61
2022-10-05T02:06:00.759Z,9.60
2022-10-05T02:09:10.704Z,9.56
2022-10-05T02:12:19.937Z,9.54
2022-10-05T02:15:29.383Z,9.52
2022-10-05T02:18:42.771Z,9.45
2022-10-05T02:21:50.977Z,9.43
2022-10-05T02:24:59.532Z,9.35
2022-10-05T02:28:10.425Z,9.31
2022-10-05T02:31:18.747Z,9.31
2022-10-05T02:34:31.059Z,9.34
2022-10-05T02:37:46.449Z,9.33
2022-10-05T02:41:00.434Z,9.40
2022-10-05T02:44:16.379Z,9.50
2022-10-05T02:47:33.954Z,9.63
2022-10-05T02:50:50.151Z,9.68
2022-10-05T02:54:08.948Z,9.70
2022-10-05T02:57:25.118Z,9.75
2022-10-05T03:00:34.489Z,9.80
2022-10-05T03:03:47.546Z,9.80
2022-10-05T03:07:03.252Z,9.73
2022-10-05T03:10:14.229Z,9.70
2022-10-05T03:13:28.324Z,9.65
2022-10-05T03:16:46.175Z,9.51
2022-10-05T03:20:15.290Z,9.44
2022-10-05T03:23:29.704Z,9.43
2022-10-05T03:26:46.909Z,9.42
2022-10-05T03:29:58.857Z,9.34
2022-10-05T03:33:11.345Z,9.30
2022-10-05T03:36:23.665Z,9.21
2022-10-05T03:39:35.649Z,9.09
2022-10-05T03:42:51.554Z,9.09
2022-10-05T03:46:02.408Z,9.07
2022-10-05T03:49:14.003Z,9.04
2022-10-05T03:52:22.085Z,9.00
2022-10-05T03:55:32.700Z,8.96
2022-10-05T03:58:43.226Z,8.92
2022-10-05T04:01:51.577Z,8.88
2022-10-05T04:04:58.460Z,8.88
2022-10-05T04:08:08.251Z,8.86
2022-10-05T04:11:15.485Z,8.86
2022-10-05T04:14:23.669Z,8.89
2022-10-05T04:17:34.241Z,8.88
2022-10-05T04:20:43.171Z,8.90
2022-10-05T04:23:52.158Z,8.93
2022-10-05T04:26:58.741Z,8.93
2022-10-05T04:30:08.097Z,8.87
2022-10-05T04:33:13.661Z,8.84
2022-10-05T04:36:23.902Z,8.84
2022-10-05T04:39:40.973Z,8.83
2022-10-05T04:42:56.786Z,8.80
2022-10-05T04:46:15.940Z,8.83
2022-10-05T04:49:32.407Z,8.82
2022-10-05T04:52:45.846Z,8.82
2022-10-05T04:55:57.478Z,8.81
2022-10-05T04:59:17.983Z,8.77
2022-10-05T05:02:33.231Z,8.78
2022-10-05T05:06:12.069Z,8.75
2022-10-05T05:09:27.555Z,8.78
2022-10-05T05:12:36.891Z,8.79
2022-10-05T05:15:48.655Z,8.81
2022-10-05T05:19:06.496Z,8.79
2022-10-05T05:22:18.658Z,8.84
2022-10-05T05:25:37.513Z,8.81
2022-10-05T05:28:47.035Z,8.74
2022-10-05T05:31:58.682Z,8.74
2022-10-05T05:35:17.213Z,8.68
2022-10-05T05:38:29.205Z,8.69
2022-10-05T05:41:38.461Z,8.69
2022-10-05T05:44:44.795Z,8.70
2022-10-05T05:47:53.752Z,8.66
2022-10-05T05:51:01.572Z,8.73
2022-10-05T05:54:19.023Z,8.79
2022-10-05T05:57:28.013Z,8.85
2022-10-05T06:00:36.728Z,8.96
2022-10-05T06:03:45.789Z,9.24
2022-10-05T06:06:52.130Z,9.63
2022-10-05T06:09:59.744Z,10.47
2022-10-05T06:13:07.366Z,11.45
2022-10-05T06:16:18.654Z,12.33
2022-10-05T06:19:24.893Z,13.42
2022-10-05T06:22:34.417Z,14.42
2022-10-05T06:25:45.493Z,15.38
2022-10-05T06:28:53.029Z,16.02
2022-10-05T06:32:06.579Z,16.66
2022-10-05T06:35:23.540Z,17.38
2022-10-05T06:38:45.480Z,18.19
2022-10-05T06:42:02.100Z,19.11
2022-10-05T06:45:12.561Z,20.12
2022-10-05T06:48:26.173Z,21.00
2022-10-05T06:51:39.748Z,21.51
2022-10-05T06:55:00.948Z,20.78
2022-10-05T06:58:18.065Z,19.35
2022-10-05T07:01:37.208Z,17.77
2022-10-05T07:05:13.267Z,16.50
2022-10-05T07:08:25.716Z,15.54
2022-10-05T07:11:43.725Z,14.96
2022-10-05T07:15:05.875Z,14.39
2022-10-05T07:18:40.121Z,14.03
2022-10-05T07:21:58.396Z,13.80
2022-10-05T07:25:17.953Z,13.59
2022-10-05T07:28:38.852Z,13.46
2022-10-05T07:31:55.366Z,13.33
2022-10-05T07:35:33.070Z,13.35
2022-10-05T07:38:46.813Z,13.29
2022-10-05T07:42:08.478Z,13.30
2022-10-05T07:45:26.444Z,13.31
2022-10-05T07:48:46.882Z,13.32
2022-10-05T07:51:57.980Z,13.37
2022-10-05T07:55:24.662Z,13.36
2022-10-05T07:59:06.812Z,13.38
2022-10-05T08:02:26.597Z,13.40
2022-10-05T08:05:39.597Z,13.46
2022-10-05T08:08:56.456Z,13.48
2022-10-05T08:12:19.908Z,13.57
2022-10-05T08:15:35.743Z,13.63
2022-10-05T08:18:57.222Z,13.71
2022-10-05T08:22:10.846Z,13.74
2022-10-05T08:25:29.696Z,13.79
2022-10-05T08:28:42.761Z,13.84
2022-10-05T08:32:03.634Z,13.93
2022-10-05T08:35:30.692Z,14.00
2022-10-05T08:38:42.162Z,14.09
2022-10-05T08:42:20.833Z,14.14
2022-10-05T08:45:52.156Z,14.26
2022-10-05T08:49:14.445Z,14.33
2022-10-05T08:52:30.491Z,14.44
2022-10-05T08:55:49.154Z,14.59
2022-10-05T08:59:23.716Z,14.82
2022-10-05T09:02:47.564Z,15.15
2022-10-05T09:06:25.457Z,15.49
2022-10-05T09:10:03.821Z,15.82
2022-10-05T09:13:32.087Z,16.27
2022-10-05T09:17:21.695Z,16.61
2022-10-05T09:20:33.281Z,16.92
2022-10-05T09:23:45.491Z,17.17
2022-10-05T09:27:08.924Z,17.47
2022-10-05T09:30:21.062Z,17.75
2022-10-05T09:34:05.862Z,18.08
2022-10-05T09:37:52.551Z,18.36
2022-10-05T09:41:30.776Z,18.67
2022-10-05T09:45:21.314Z,18.83
2022-10-05T09:48:58.790Z,19.00
2022-10-05T09:52:18.920Z,19.19
2022-10-05T09:55:42.345Z,19.36
2022-10-05T09:59:24.095Z,19.54
2022-10-05T10:03:07.767Z,19.63
2022-10-05T10:06:29.913Z,19.74
2022-10-05T10:09:48.356Z,19.87
2022-10-05T10:13:14.935Z,19.97
2022-10-05T10:17:00.301Z,20.11
2022-10-05T10:20:48.742Z,20.25
2022-10-05T10:24:45.697Z,20.30
2022-10-05T10:28:45.034Z,20.33
2022-10-05T10:33:03.656Z,20.38
2022-10-05T10:36:24.893Z,20.42
2022-10-05T10:44:23.282Z,20.56
2022-10-05T10:48:04.678Z,20.57
2022-10-05T10:51:28.068Z,20.55
2022-10-05T10:55:11.787Z,20.69
2022-10-05T10:58:48.495Z,20.68
2022-10-05T11:02:15.367Z,20.75
2022-10-05T11:05:34.372Z,20.80
2022-10-05T11:09:04.380Z,20.83
2022-10-05T11:12:45.751Z,20.83
2022-10-05T11:16:33.400Z,20.94
2022-10-05T11:20:04.110Z,21.09
2022-10-05T11:23:35.332Z,21.16
2022-10-05T11:27:16.233Z,21.12
2022-10-05T11:30:51.213Z,21.16
2022-10-05T11:34:33.101Z,21.14
2022-10-05T11:38:10.955Z,21.20
2022-10-05T11:41:45.913Z,21.32
2022-10-05T11:45:34.690Z,21.45
2022-10-05T11:48:56.825Z,21.55
2022-10-05T11:52:13.852Z,21.76
2022-10-05T11:55:29.051Z,21.93
2022-10-05T11:58:46.781Z,22.18
2022-10-05T12:02:24.564Z,22.38
2022-10-05T12:05:41.279Z,22.56
2022-10-05T12:09:20.126Z,22.76
2022-10-05T12:12:39.044Z,22.89
2022-10-05T12:15:58.800Z,23.03
2022-10-05T12:19:23.511Z,23.14
2022-10-05T12:22:40.576Z,23.25
2022-10-05T12:25:53.221Z,23.40
2022-10-05T12:29:21.502Z,23.56
2022-10-05T12:37:40.917Z,23.92
2022-10-05T12:41:16.800Z,24.09
2022-10-05T12:44:47.636Z,24.23
2022-10-05T12:48:08.903Z,24.29
2022-10-05T12:51:27.868Z,24.34
2022-10-05T12:54:49.904Z,24.45
2022-10-05T12:58:09.873Z,24.57
2022-10-05T13:01:31.710Z,24.64
2022-10-05T13:04:54.694Z,24.61
2022-10-05T13:12:20.976Z,24.45
2022-10-05T13:15:42.751Z,24.38
2022-10-05T13:19:07.411Z,24.29
2022-10-05T13:22:33.934Z,24.26
2022-10-05T13:25:46.814Z,24.28
2022-10-05T13:29:01.369Z,24.15
2022-10-05T13:32:31.256Z,24.11
2022-10-05T13:35:54.713Z,23.83
2022-10-05T13:39:07.079Z,23.64
2022-10-05T13:42:18.779Z,23.57
2022-10-05T13:45:42.328Z,23.43
2022-10-05T13:49:07.598Z,23.32
2022-10-05T13:52:24.503Z,23.18
2022-10-05T13:55:40.386Z,23.06
2022-10-05T13:58:58.459Z,23.04
2022-10-05T14:02:09.755Z,23.08
2022-10-05T14:05:25.733Z,23.05
2022-10-05T14:08:41.476Z,23.17
2022-10-05T14:11:58.549Z,23.55
2022-10-05T14:15:27.068Z,24.11
2022-10-05T14:18:38.702Z,24.81
2022-10-05T14:21:57.882Z,25.87
2022-10-05T14:25:18.480Z,26.42
2022-10-05T14:28:31.010Z,26.46
2022-10-05T14:31:41.441Z,26.35
2022-10-05T14:34:59.501Z,25.93
2022-10-05T14:38:22.770Z,25.45
2022-10-05T14:45:40.263Z,24.85
2022-10-05T14:49:39.198Z,24.39
2022-10-05T14:53:54.148Z,23.46
2022-10-05T14:57:12.966Z,22.89
2022-10-05T15:00:44.587Z,22.47
2022-10-05T15:04:15.063Z,22.09
2022-10-05T15:07:36.347Z,21.86
2022-10-05T15:11:04.872Z,21.65
2022-10-05T15:14:28.350Z,21.52
2022-10-05T15:18:01.352Z,21.45
2022-10-05T15:25:14.262Z,21.36
2022-10-05T15:28:48.099Z,21.23
2022-10-05T15:32:13.233Z,21.13
2022-10-05T15:35:47.805Z,21.08
2022-10-05T15:39:18.883Z,21.01
2022-10-05T15:42:46.659Z,20.90
2022-10-05T15:46:38.807Z,20.77
2022-10-05T15:49:56.558Z,20.60
2022-10-05T15:53:13.507Z,20.41
2022-10-05T15:56:39.016Z,20.27
2022-10-05T16:00:01.236Z,20.11
2022-10-05T16:03:24.517Z,20.00
2022-10-05T16:07:09.697Z,19.85
2022-10-05T16:10:30.122Z,19.70
2022-10-05T16:17:44.603Z,19.45
2022-10-05T16:21:01.972Z,19.31
2022-10-05T16:24:26.855Z,19.18
2022-10-05T16:27:46.563Z,19.07
2022-10-05T16:31:10.917Z,18.93
2022-10-05T16:34:32.077Z,18.80
2022-10-05T16:37:48.881Z,18.70
2022-10-05T16:41:08.678Z,18.55
2022-10-05T16:44:26.299Z,18.41
2022-10-05T16:47:43.934Z,18.32
2022-10-05T16:51:01.262Z,18.21
2022-10-05T16:54:23.291Z,18.11
2022-10-05T16:57:38.883Z,18.01
2022-10-05T17:01:05.568Z,17.91
2022-10-05T17:04:28.563Z,17.78
2022-10-05T17:08:06.187Z,17.65
2022-10-05T17:11:34.949Z,17.52
2022-10-05T17:14:55.168Z,17.38
2022-10-05T17:18:40.349Z,17.25
2022-10-05T17:21:55.536Z,17.11
2022-10-05T17:25:11.658Z,16.98
2022-10-05T17:28:39.172Z,16.86
2022-10-05T17:32:16.982Z,16.75
2022-10-05T17:35:44.240Z,16.65
2022-10-05T17:38:57.293Z,16.60
2022-10-05T17:42:35.986Z,16.52
2022-10-05T17:46:02.346Z,16.45
2022-10-05T17:49:28.151Z,16.41
2022-10-05T17:52:51.868Z,16.40
2022-10-05T17:56:12.217Z,16.34
2022-10-05T17:59:47.264Z,16.31
2022-10-05T18:02:58.887Z,16.20
2022-10-05T18:06:52.954Z,16.11
2022-10-05T18:10:18.082Z,16.02
2022-10-05T18:13:42.780Z,15.99
2022-10-05T18:17:04.924Z,15.93
2022-10-05T18:20:20.419Z,15.92
2022-10-05T18:23:36.930Z,15.94
2022-10-05T18:27:00.376Z,15.96
2022-10-05T18:30:18.777Z,16.13
2022-10-05T18:34:03.185Z,16.42
2022-10-05T18:37:34.159Z,16.72
2022-10-05T18:44:47.266Z,17.27
2022-10-05T18:48:22.361Z,17.41
2022-10-05T18:51:53.260Z,17.52
2022-10-05T18:55:24.482Z,17.63
2022-10-05T18:58:57.300Z,17.64
2022-10-05T19:02:27.037Z,17.67
2022-10-05T19:05:48.650Z,17.67
2022-10-05T19:09:12.448Z,17.72
2022-10-05T19:12:41.244Z,17.73
2022-10-05T19:16:07.417Z,17.72
2022-10-05T19:19:37.397Z,17.64
2022-10-05T19:23:00.923Z,17.52
2022-10-05T19:26:19.538Z,17.37
2022-10-05T19:29:51.491Z,17.14
2022-10-05T19:33:24.995Z,16.96
2022-10-05T19:36:53.897Z,16.83
2022-10-05T19:40:09.768Z,16.66
2022-10-05T19:43:37.254Z,16.51
2022-10-05T19:46:59.214Z,16.41
2022-10-05T19:50:29.091Z,16.34
2022-10-05T19:53:43.139Z,16.30
2022-10-05T19:56:53.498Z,16.25
2022-10-05T20:00:05.891Z,16.16
2022-10-05T20:03:28.099Z,16.08
2022-10-05T20:07:05.228Z,15.99
2022-10-05T20:10:29.865Z,15.87
2022-10-05T20:13:37.360Z,15.78
2022-10-05T20:16:59.661Z,15.72
2022-10-05T20:20:40.026Z,15.60
2022-10-05T20:23:51.803Z,15.54
2022-10-05T20:27:16.068Z,15.48
2022-10-05T20:30:23.269Z,15.45
2022-10-05T20:33:33.812Z,15.44
2022-10-05T20:36:43.234Z,15.45
2022-10-05T20:39:49.042Z,15.49
2022-10-05T20:42:58.320Z,15.51
2022-10-05T20:46:09.433Z,15.51
2022-10-05T20:49:27.034Z,15.49
2022-10-05T20:52:40.798Z,15.47
2022-10-05T20:55:46.912Z,15.38
2022-10-05T20:58:53.469Z,15.35
2022-10-05T21:02:13.424Z,15.28
2022-10-05T21:05:19.871Z,15.23
2022-10-05T21:08:29.696Z,15.19
2022-10-05T21:11:38.271Z,15.19
2022-10-05T21:14:46.993Z,15.12
2022-10-05T21:18:00.072Z,15.15
2022-10-05T21:21:08.570Z,15.18
2022-10-05T21:24:18.088Z,15.24
2022-10-05T21:27:26.307Z,15.30
2022-10-05T21:30:35.630Z,15.45
2022-10-05T21:33:45.711Z,15.54
2022-10-05T21:36:57.382Z,15.60
2022-10-05T21:40:05.727Z,15.68
2022-10-05T21:43:13.848Z,15.71
2022-10-05T21:46:42.609Z,15.71
2022-10-05T21:49:57.779Z,15.66
2022-10-05T21:53:08.141Z,15.60
2022-10-05T21:56:21.318Z,15.54
2022-10-05T21:59:35.093Z,15.51
2022-10-05T22:02:42.071Z,15.45
2022-10-05T22:05:53.088Z,15.38
2022-10-05T22:09:00.443Z,15.30
2022-10-05T22:12:09.945Z,15.24
2022-10-05T22:15:17.428Z,15.18
2022-10-05T22:18:23.092Z,15.13
2022-10-05T22:21:30.048Z,15.07
2022-10-05T22:24:35.743Z,15.03
2022-10-05T22:27:43.759Z,15.00
2022-10-05T22:30:58.313Z,14.97
2022-10-05T22:34:06.794Z,14.94
2022-10-05T22:37:14.048Z,14.87
2022-10-05T22:40:32.800Z,14.82
2022-10-05T22:47:14.273Z,14.60
2022-10-05T22:50:20.941Z,14.51
2022-10-05T22:53:27.735Z,14.45
2022-10-05T22:56:37.000Z,14.38
2022-10-05T22:59:45.709Z,14.28
2022-10-05T23:02:52.162Z,14.22
2022-10-05T23:06:05.325Z,14.16
2022-10-05T23:09:11.650Z,14.09
2022-10-05T23:12:18.464Z,14.04
2022-10-05T23:15:26.479Z,14.02
2022-10-05T23:18:34.741Z,13.99
2022-10-05T23:21:42.134Z,13.91
2022-10-05T23:24:48.089Z,13.84
2022-10-05T23:27:56.582Z,13.76
2022-10-05T23:31:01.067Z,13.72
2022-10-05T23:34:04.098Z,13.67
2022-10-05T23:37:07.098Z,13.62
2022-10-05T23:40:12.945Z,13.56
2022-10-05T23:43:15.957Z,13.50
2022-10-05T23:46:20.317Z,13.43
2022-10-05T23:49:23.954Z,13.35
2022-10-05T23:52:26.889Z,13.33
2022-10-05T23:55:29.613Z,13.31
2022-10-05T23:58:34.539Z,13.26
